Flight Track Log - Related Links

Times and Time Zones

All times are in EDT time to prevent confusion due to time zone crossing. See the EJA831 flight status page for this flight to view local times or setup timezone preferences in your user account.

Time Position Orientation Groundspeed Altitude Reporting Facility
EDT Latitude Longitude Course Direction KTS MPH feet Rate Location/Type
Fri 11:50:45 AM 33.6333 -111.9000 334° Northwest 170 196 2,600  Level Phoenix TRACON
Fri 11:51:28 AM 33.6667 -111.9000 360° North 189 217 4,300 2,000 Climbing Phoenix TRACON
Fri 11:52:12 AM 33.6939 -111.9378 311° West 205 236 5,500 2,491 Climbing Albuquerque Center
Fri 11:53:14 AM 33.7411 -111.9931 316° Northwest 234 269 8,700 2,952 Climbing Albuquerque Center
Fri 11:54:16 AM 33.7983 -112.0606 316° Northwest 285 328 11,600 2,710 Climbing Albuquerque Center
Fri 11:55:18 AM 33.8586 -112.1314 316° Northwest 297 342 14,300 2,496 Climbing Albuquerque Center
Fri 11:56:00 AM 34.0675 -112.3505 334° Northwest  Level FlightAware Approximate
Fri 11:56:21 AM 33.9214 -112.2072 315° West 313 360 16,800  Level Albuquerque Center
Fri 11:57:23 AM 34.0003 -112.3011 315° West 327 376 19,700 2,032 Climbing Albuquerque Center
Fri 11:58:25 AM 34.0789 -112.3647 326° Northwest 341 392 21,000 629 Climbing Albuquerque Center
Fri 11:59:27 AM 34.1703 -112.4225 332° Northwest 366 421 21,000 726 Level Albuquerque Center
Fri 12:00:29 PM 34.2606 -112.4778 333° Northwest 364 419 22,500 1,694 Climbing Albuquerque Center
Fri 12:01:31 PM 34.3469 -112.5319 333° Northwest 354 407 24,500 1,839 Climbing Albuquerque Center
Fri 12:02:33 PM 34.4344 -112.5858 333° Northwest 353 406 26,300 1,597 Climbing Albuquerque Center
Fri 12:03:35 PM 34.5189 -112.6581 325° Northwest 366 421 27,800 1,597 Climbing Albuquerque Center
Fri 12:04:37 PM 34.5797 -112.7914 299° West 374 430 29,600 1,597 Climbing Albuquerque Center
Fri 12:05:39 PM 34.6292 -112.9056 298° West 378 435 31,100 1,440 Climbing Albuquerque Center
Fri 12:06:42 PM 34.6792 -113.0183 298° West 380 437 32,600 1,440 Climbing Albuquerque Center
Fri 12:07:44 PM 34.7286 -113.1300 298° West 380 437 34,100 1,403 Climbing Albuquerque Center
Fri 12:08:46 PM 34.7775 -113.2397 299° West 374 430 35,500 919 Climbing Albuquerque Center
Fri 12:09:48 PM 34.8258 -113.3517 298° West 372 428 36,000 242 Climbing Albuquerque Center
Fri 12:10:50 PM 34.8886 -113.4950 298° West 394 453 36,000  Level Albuquerque Center
Fri 12:11:52 PM 34.9406 -113.6169 297° West 402 463 36,000  Level Albuquerque Center
Fri 12:12:54 PM 34.9939 -113.7369 299° West 402 463 36,000  Level Albuquerque Center
Fri 12:13:56 PM 35.0447 -113.8578 297° West 402 463 36,000  Level Albuquerque Center
Fri 12:14:58 PM 35.0972 -113.9781 298° West 402 463 36,000  Level Albuquerque Center
Fri 12:16:00 PM 35.1572 -114.1228 297° West 402 463 36,000  Level Albuquerque Center
Fri 12:17:08 PM 35.2106 -114.2419 299° West 401 461 36,000  Level Los Angeles Center
Fri 12:18:10 PM 35.2625 -114.3633 298° West 401 461 36,000  Level Los Angeles Center
Fri 12:19:12 PM 35.3239 -114.5072 298° West 399 459 36,000 435 Level Los Angeles Center
Fri 12:20:14 PM 35.3747 -114.6286 297° West 399 459 36,900 1,056 Climbing Los Angeles Center
Fri 12:21:17 PM 35.4236 -114.7436 298° West 387 445 38,200 1,248 Climbing Los Angeles Center
Fri 12:22:19 PM 35.4806 -114.8472 304° West 370 426 39,500 871 Climbing Los Angeles Center
Fri 12:23:21 PM 35.5486 -114.9411 312° West 368 423 40,000 242 Climbing Los Angeles Center
Fri 12:24:23 PM 35.6183 -115.0392 311° West 374 430 40,000  Level Los Angeles Center
Fri 12:25:25 PM 35.7047 -115.1617 311° West 391 450 40,000  Level Los Angeles Center
Fri 12:26:27 PM 35.7764 -115.2633 311° West 391 450 40,000  Level Los Angeles Center
Fri 12:27:29 PM 35.8486 -115.3658 311° West 392 451 40,000  Level Los Angeles Center
Fri 12:28:32 PM 35.9203 -115.4681 311° West 392 451 40,000  Level Los Angeles Center
Fri 12:29:34 PM 35.9922 -115.5706 311° West 393 452 40,000  Level Los Angeles Center
Fri 12:30:36 PM 36.0647 -115.6764 310° West 396 456 40,000  Level Los Angeles Center
Fri 12:31:38 PM 36.1386 -115.7811 311° West 397 457 40,000  Level Los Angeles Center
Fri 12:32:40 PM 36.2164 -115.8928 311° West 397 457 40,000  Level Los Angeles Center
Fri 12:33:42 PM 36.2897 -115.9978 311° West 397 457 40,000  Level Los Angeles Center
Fri 12:34:44 PM 36.3614 -116.1022 310° West 398 458 40,000  Level Los Angeles Center
Fri 12:35:46 PM 36.4431 -116.2233 310° West 397 457 40,000  Level Los Angeles Center
Fri 12:36:49 PM 36.5164 -116.3250 312° West 397 457 40,000  Level Los Angeles Center
Fri 12:37:51 PM 36.5897 -116.4369 309° West 397 457 40,000  Level Los Angeles Center
Fri 12:38:53 PM 36.6614 -116.5422 310° West 397 457 40,000  Level Los Angeles Center
Fri 12:39:55 PM 36.7319 -116.6469 310° West 397 457 40,000  Level Los Angeles Center
Fri 12:40:57 PM 36.8056 -116.7503 312° West 397 457 40,000  Level Los Angeles Center
Fri 12:41:59 PM 36.9164 -116.8425 326° Northwest 396 456 40,000  Level Los Angeles Center
Fri 12:43:01 PM 37.0086 -116.9192 326° Northwest 397 457 40,000  Level Los Angeles Center
Fri 12:44:03 PM 37.1006 -116.9969 326° Northwest 398 458 40,000  Level Los Angeles Center
Fri 12:45:05 PM 37.1925 -117.0739 326° Northwest 398 458 40,000  Level Los Angeles Center
Fri 12:46:08 PM 37.2833 -117.1522 326° Northwest 398 458 40,000  Level Los Angeles Center
Fri 12:47:10 PM 37.3564 -117.2553 312° West 398 458 40,000  Level Los Angeles Center
Fri 12:48:12 PM 37.3844 -117.3919 285° West 403 464 40,000  Level Los Angeles Center
Fri 12:49:14 PM 37.4117 -117.5569 282° West 402 463 40,000  Level Los Angeles Center
Fri 12:50:22 PM 37.4325 -117.6944 281° West 400 460 40,000  Level Oakland Center
Fri 12:51:23 PM 37.4531 -117.8297 281° West 399 459 40,000  Level Oakland Center
Fri 12:52:25 PM 37.4747 -117.9658 281° West 398 458 40,000  Level Oakland Center
Fri 12:53:26 PM 37.5006 -118.1322 281° West 400 460 40,000  Level Oakland Center
Fri 12:54:28 PM 37.5219 -118.2675 281° West 397 457 40,000  Level Oakland Center
Fri 12:55:29 PM 37.5433 -118.4042 281° West 397 457 40,000  Level Oakland Center
Fri 12:56:31 PM 37.5639 -118.5408 281° West 397 457 40,000  Level Oakland Center
Fri 12:57:32 PM 37.5847 -118.6761 281° West 396 456 40,000  Level Oakland Center
Fri 12:58:34 PM 37.6039 -118.8086 280° West 394 453 40,000 -585 Level Oakland Center
Fri 12:59:35 PM 37.6242 -118.9436 281° West 394 453 38,800 -1,317 Descending Oakland Center
Fri 01:00:37 PM 37.6439 -119.0758 281° West 391 450 37,300 -1,268 Descending Oakland Center
Fri 01:01:38 PM 37.6622 -119.2081 280° West 385 443 36,200 -634 Descending Oakland Center
Fri 01:02:40 PM 37.6856 -119.3717 280° West 392 451 36,000 -97 Descending Oakland Center
Fri 01:03:42 PM 37.7042 -119.5064 280° West 392 451 36,000 -341 Level Oakland Center
Fri 01:04:43 PM 37.7231 -119.6419 280° West 392 451 35,300 -1,122 Descending Oakland Center
Fri 01:05:45 PM 37.7425 -119.7775 280° West 392 451 33,700 -1,512 Descending Oakland Center
Fri 01:06:46 PM 37.7617 -119.9144 280° West 392 451 32,200 -1,463 Descending Oakland Center
Fri 01:07:48 PM 37.7822 -120.0547 281° West 406 467 30,700 -1,500 Descending Oakland Center
Fri 01:08:50 PM 37.8019 -120.2008 280° West 421 484 29,100 -1,951 Descending Oakland Center
Fri 01:09:51 PM 37.8219 -120.3472 280° West 422 486 26,700 -2,537 Descending Oakland Center
Fri 01:10:53 PM 37.8431 -120.5150 279° West 404 465 23,900 -2,323 Descending Oakland Center
Fri 01:11:55 PM 37.8611 -120.6472 280° West 386 444 21,900 -1,951 Descending Oakland Center
Fri 01:12:56 PM 37.8581 -120.7778 268° West 375 432 19,900 -2,000 Descending Oakland Center
Fri 01:13:58 PM 37.8489 -120.9011 265° West 357 411 17,800 -1,983 Descending Oakland Center
Fri 01:14:51 PM 37.8500 -121.0167 271° West 345 397 16,100 -1,842 Descending Northern Cal TRACON
Fri 01:15:52 PM 37.8333 -121.1333 260° West 343 395 14,300 -1,835 Descending Northern Cal TRACON
Fri 01:16:52 PM 37.8000 -121.2500 250° West 379 436 12,400 -1,765 Descending Northern Cal TRACON
Fri 01:17:51 PM 37.7667 -121.3500 247° West 328 377 10,800 -1,250 Descending Northern Cal TRACON
Fri 01:18:52 PM 37.7333 -121.4500 247° West 319 367 9,900 -730 Descending Northern Cal TRACON
Fri 01:19:46 PM 37.7000 -121.5500 247° West 283 326 9,400 -737 Descending Northern Cal TRACON
Fri 01:20:46 PM 37.6667 -121.6333 243° Southwest 278 320 8,500 -950 Descending Northern Cal TRACON
Fri 01:21:46 PM 37.6500 -121.7167 256° West 254 292 7,500 -1,100 Descending Northern Cal TRACON
Fri 01:22:46 PM 37.6500 -121.8000 270° West 209 241 6,300 -1,450 Descending Northern Cal TRACON
Fri 01:23:46 PM 37.6500 -121.8667 270° West 208 239 4,600 -1,421 Descending Northern Cal TRACON
Fri 01:24:40 PM 37.6500 -121.9333 270° West 211 243 3,600 -809 Descending Northern Cal TRACON
Fri 01:25:15 PM 37.6556 -121.9775 279° West 212 244 3,400 -433 Descending Oakland Center
Fri 01:26:17 PM 37.6719 -122.0442 287° West 206 237 2,900 -774 Descending Oakland Center
Fri 01:27:19 PM 37.6883 -122.0975 291° West 180 207 1,800 -927 Descending Oakland Center
Fri 01:28:20 PM 37.7047 -122.1439 294° West 156 180 1,000 -732 Descending Oakland Center
Fri 01:29:22 PM 37.7189 -122.1881 292° West 146 168 300 -677 Descending Oakland Center
Fri 01:31:00 PM 37.7167 -122.2167 270° West  Level FlightAware Approximate
Fri 01:38:00 PM 37.7228 -122.2215 270° West  Level Estimated

Login

Don't have an account? Register now (free) for customized features, flight alerts, and more!